Arroyo, PR (00714)

11:56 PM AST on December 28, 2014 (GMT -0400)
Urb. Arroyo Villages | Change Station
CLOSE
Current Station
Personal Weather Station
Location: Bo. Ancones, Arroyo, PR
Elevation: 120 ft
Nearby Weather Stations

Elev 120 ft 17.99 °N, 66.05 °W | Updated 10 minutes ago

Partly Cloudy
Partly Cloudy
74.1 °F
Feels Like 74 °F
N
0.0
Wind Variable Wind from NE
Gusts 4.0 mph

Today
High -- | Low -- °F
--% Chance of Precip.
Yesterday
High -- | Low -- °F
Precip. -- in
6:53 AM 5:57 PM
First Quarter, 54% visible
Pressure 30.08 in
Visibility 10.0 miles
Clouds Few 3100 ft
Heat Index 74 °F
Dew Point 68 °F
Humidity 80%
Rainfall 0.03 in
Snow Depth Not available.
UV 0 out of 12
Pollen Not available.
Air Quality Not available.
Flu Activity Not available.
METAR TJSJ 290256Z 00000KT 10SM FEW031 25/21 A3008 RMK AO2 SLP184 P0001 60001 T02500206 50005

More Conditions Fewer Conditions

Pressure 30.08 in
Visibility 10.0 miles
Clouds Few 3100 ft
Heat Index 74 °F
Dew Point 68 °F
Humidity 80%
Rainfall 0.03 in
Snow Depth Not available.
UV 0 out of 12
Pollen Not available.
Air Quality Not available.
Flu Activity Not available.
METAR TJSJ 290256Z 00000KT 10SM FEW031 25/21 A3008 RMK AO2 SLP184 P0001 60001 T02500206 50005

More Conditions Fewer Conditions

10-Day Weather Forecast

Almanac

Astronomy

Dec. 28, 2014 Rise Set
Actual Time
Civil Twilight
Nautical Twilight
Astronomical Twilight
Moon
Length of Visible Light
Length of Day
Tomorrow will be .
, % of the Moon is Illuminated

Today's Extremes

State Highs State Lows

Community

WunderPhotos

Upload Photos

1,781,520 photos uploaded!

WunderBlogs® & News

Nearby

Air Quality

  Air Quality AQ Index Pollutant
Not available.

Snow Depth

Station Depth Elevation

Earthquake Activity

City Distance Mag. Time & Date
Minimum magnitude displayed is 2.5.

Coastal Water Temperatures

Place Temperature

Nearby Weather Stations